Forside
METAR-TAF:

METAR-TAF

Lufthavne :

Samarkand, Usbekistan

Breddekreds: 39-34N, længdekreds: 066-57E, højde: 724 m

Aktuelle vejr

Denne rapport blev lavet for 32 minutter siden, kl. 12:30 UTC
Vind 8 kt fra vest
Temperatur 28°C
Fugtighed 20%
Tryk 1013 hPa
Sigt 10 km eller mere

METAR: UTSS 191230Z 28008KT 9999 NSC 28/03 Q1013 R27/70D NOSIG

Tid: 18:02 (13:02 UTC)

Vejrudsigter

Denne rapport blev lavet for 2 timer og 5 minutter siden, kl. 10:57 UTC
Foreløbig gælder fra 19 på 12 UTC til 20 på 12 UTC
Vind 10 kt fra vestnordvest med vindstød på up til 20 kt
Sigt 10 km eller mere
Midlertidig
fra 19 på 12 UTC til 19 på 21 UTC
Vind 20 kt fra vest med vindstød på up til 30 kt
Sigt: 3500 m
Spredte skyer i en højde af 6600 ft, Cumulonimbus.
Brudte skyer i en højde af 10000 ft

TAF: UTSS 191057Z 1912/2012 30010G20KT 9999 NSC TEMPO 1912/1921 27020G30KT 3500 -DS SCT066CB BKN100

Vejrobservationer og prognoser fra mere end 4000 lufthavne (METAR og TAF).

De gule og røde prikker repræsenterer de meteorologiske stationer.

Flyt musen over at se navnet på stationen.

Så klik over at se vejr observationer og prognoser.

At skifte det kort: Klik på de grønne knapper med et sort kors for at zoome ind; på den grønne knap med en bindestreg for at zoome ud; eller på de grønne pile for tilstødende kort.


METAR-TAF: